Time;durP1;ratioP1;P1;durP2;ratioP2;P2;SDS_P1;SDS_P2;PMS_P1;PMS_P2;Temp;Humidity;BMP_temperature;BMP_pressure;BME280_temperature;BME280_humidity;BME280_pressure;Samples;Min_cycle;Max_cycle;Signal;HPM_P1;HPM_P2
2022/01/19 00:02:07;;;;;;;162.50;42.45;;;;;;;;;;5052601;28;20032;-76
2022/01/19 00:04:33;;;;;;;178.32;42.90;;;;;;;;;;5052534;28;20029;-76
2022/01/19 00:06:59;;;;;;;141.10;40.25;;;;;;;;;;5052576;28;20468;-76
2022/01/19 00:09:26;;;;;;;156.98;41.97;;;;;;;;;;5050936;28;20033;-76
2022/01/19 00:11:52;;;;;;;161.90;42.10;;;;;;;;;;5052585;28;20475;-76
2022/01/19 00:14:18;;;;;;;146.60;41.55;;;;;;;;;;5052252;28;20086;-76
2022/01/19 00:16:44;;;;;;;174.07;44.10;;;;;;;;;;5053643;28;20022;-76
2022/01/19 00:19:10;;;;;;;177.02;43.83;;;;;;;;;;5032369;28;20026;-76
2022/01/19 00:21:36;;;;;;;141.50;40.20;;;;;;;;;;5032563;28;20021;-76
2022/01/19 00:24:02;;;;;;;229.02;48.85;;;;;;;;;;5032151;28;20028;-76
2022/01/19 00:26:28;;;;;;;154.63;42.42;;;;;;;;;;5032162;28;20128;-76
2022/01/19 00:28:55;;;;;;;197.55;45.78;;;;;;;;;;5032005;28;20034;-76
2022/01/19 00:31:21;;;;;;;165.73;43.55;;;;;;;;;;5032137;28;20026;-76
2022/01/19 00:33:47;;;;;;;167.27;41.50;;;;;;;;;;5032119;28;20036;-76
2022/01/19 00:36:13;;;;;;;185.75;43.42;;;;;;;;;;5032147;28;20100;-76
2022/01/19 00:38:39;;;;;;;196.80;47.20;;;;;;;;;;5031838;28;20025;-76
2022/01/19 00:41:05;;;;;;;162.57;43.50;;;;;;;;;;5032070;28;20037;-76
2022/01/19 00:43:31;;;;;;;160.75;43.42;;;;;;;;;;5030962;28;20036;-76
2022/01/19 00:45:57;;;;;;;153.98;41.67;;;;;;;;;;5032035;28;20600;-76
2022/01/19 00:48:23;;;;;;;133.93;39.63;;;;;;;;;;5032013;28;20044;-76
2022/01/19 00:50:50;;;;;;;150.25;41.33;;;;;;;;;;5032189;28;20025;-76
2022/01/19 00:53:16;;;;;;;151.10;39.38;;;;;;;;;;5031745;28;20021;-76
2022/01/19 00:55:42;;;;;;;135.05;39.00;;;;;;;;;;5031888;28;20025;-76
2022/01/19 00:58:08;;;;;;;141.38;39.13;;;;;;;;;;5031881;28;20141;-76
2022/01/19 01:00:34;;;;;;;148.27;39.58;;;;;;;;;;5036365;28;20100;-76
2022/01/19 01:03:02;;;;;;;139.32;38.97;;;;;;;;;;5051695;28;20039;-76
2022/01/19 01:05:29;;;;;;;148.55;38.05;;;;;;;;;;5051789;28;20048;-76
2022/01/19 01:07:55;;;;;;;136.82;38.75;;;;;;;;;;5051696;28;20108;-76
2022/01/19 01:10:21;;;;;;;157.15;40.20;;;;;;;;;;5051597;28;20103;-76
2022/01/19 01:12:52;;;;;;;169.95;41.00;;;;;;;;;;5051510;28;20108;-76
2022/01/19 01:20:29;;;;;;;145.00;39.40;;;;;;;;;;5031825;28;20421;-76
2022/01/19 01:22:55;;;;;;;146.15;41.83;;;;;;;;;;5031537;28;20033;-76
2022/01/19 01:25:21;;;;;;;170.95;41.03;;;;;;;;;;5031605;28;20033;-76
2022/01/19 01:27:47;;;;;;;173.55;42.00;;;;;;;;;;5031563;28;20104;-75
2022/01/19 01:30:13;;;;;;;138.23;38.03;;;;;;;;;;5031703;28;20112;-75
2022/01/19 01:32:39;;;;;;;136.85;38.72;;;;;;;;;;5031593;28;20109;-76
2022/01/19 01:35:06;;;;;;;124.40;35.72;;;;;;;;;;5030154;28;20120;-76
2022/01/19 01:37:32;;;;;;;115.80;35.10;;;;;;;;;;5031513;28;20033;-76
2022/01/19 01:40:00;;;;;;;137.32;35.95;;;;;;;;;;5031439;28;20021;-76
2022/01/19 01:42:26;;;;;;;131.90;38.63;;;;;;;;;;5031740;28;20040;-76
2022/01/19 01:44:55;;;;;;;107.43;35.08;;;;;;;;;;5040541;28;20416;-76
2022/01/19 01:47:22;;;;;;;129.07;37.05;;;;;;;;;;5051419;28;20021;-76
2022/01/19 01:54:59;;;;;;;127.95;37.13;;;;;;;;;;5052713;28;20083;-76
2022/01/19 01:57:25;;;;;;;147.05;38.13;;;;;;;;;;5055265;28;20036;-76
2022/01/19 01:59:52;;;;;;;132.88;36.65;;;;;;;;;;5054912;28;20486;-76
2022/01/19 02:02:18;;;;;;;120.45;36.25;;;;;;;;;;5054897;28;20032;-76
2022/01/19 02:04:44;;;;;;;142.32;37.47;;;;;;;;;;5054959;28;20380;-76
2022/01/19 02:09:58;;;;;;;133.90;38.30;;;;;;;;;;5054552;28;20099;-76
2022/01/19 02:23:27;;;;;;;141.00;38.30;;;;;;;;;;5054364;28;20035;-76
2022/01/19 02:26:01;;;;;;;146.68;38.78;;;;;;;;;;5054485;28;20110;-76
2022/01/19 02:41:46;;;;;;;118.97;35.17;;;;;;;;;;5054422;28;20470;-76
2022/01/19 02:44:26;;;;;;;134.27;37.22;;;;;;;;;;5050111;28;20059;-75
2022/01/19 02:49:36;;;;;;;149.88;37.35;;;;;;;;;;5033925;28;20124;-76
2022/01/19 02:52:03;;;;;;;137.65;39.05;;;;;;;;;;5033641;28;20029;-76
2022/01/19 02:54:29;;;;;;;141.15;38.30;;;;;;;;;;5033586;28;20045;-76
2022/01/19 02:56:59;;;;;;;178.73;41.30;;;;;;;;;;5033818;28;20100;-76
2022/01/19 02:59:35;;;;;;;157.18;40.15;;;;;;;;;;5032328;28;20107;-76
2022/01/19 03:10:15;;;;;;;186.38;43.58;;;;;;;;;;5034103;28;20352;-76
2022/01/19 03:12:41;;;;;;;172.40;43.65;;;;;;;;;;5033617;28;20026;-76
2022/01/19 03:15:08;;;;;;;175.52;43.30;;;;;;;;;;5033718;28;20543;-76
2022/01/19 03:17:34;;;;;;;163.80;41.53;;;;;;;;;;5042075;28;20025;-76
2022/01/19 03:20:00;;;;;;;187.07;44.05;;;;;;;;;;5033437;28;20450;-76
2022/01/19 03:22:34;;;;;;;164.45;42.95;;;;;;;;;;5033460;28;20022;-76
2022/01/19 03:25:00;;;;;;;155.60;41.50;;;;;;;;;;5033494;28;20040;-76
2022/01/19 03:27:26;;;;;;;160.85;41.63;;;;;;;;;;5033442;28;20053;-76
2022/01/19 03:29:53;;;;;;;166.63;41.70;;;;;;;;;;5033358;28;20471;-76
2022/01/19 03:32:19;;;;;;;171.32;41.13;;;;;;;;;;5033495;28;20025;-76
2022/01/19 03:34:45;;;;;;;157.48;40.42;;;;;;;;;;5033227;28;20479;-76
2022/01/19 03:37:11;;;;;;;179.80;42.47;;;;;;;;;;5033642;28;20108;-76
2022/01/19 03:39:37;;;;;;;155.10;38.72;;;;;;;;;;5033046;28;20420;-76
2022/01/19 03:42:04;;;;;;;174.98;39.75;;;;;;;;;;5033158;28;20033;-76
2022/01/19 03:44:30;;;;;;;139.82;36.80;;;;;;;;;;5032978;28;20100;-76
2022/01/19 03:46:59;;;;;;;206.63;40.92;;;;;;;;;;5033064;28;20503;-76
2022/01/19 03:49:27;;;;;;;127.85;34.83;;;;;;;;;;5033032;28;20025;-76
2022/01/19 03:51:58;;;;;;;148.27;37.20;;;;;;;;;;5032826;28;20091;-76
2022/01/19 03:54:24;;;;;;;154.30;36.58;;;;;;;;;;5032817;28;20033;-76
2022/01/19 03:56:50;;;;;;;139.70;36.58;;;;;;;;;;5032931;28;20021;-76
2022/01/19 03:59:16;;;;;;;127.55;36.67;;;;;;;;;;5032891;28;20026;-76
2022/01/19 04:01:42;;;;;;;145.88;37.90;;;;;;;;;;5033028;28;20353;-76
2022/01/19 04:04:29;;;;;;;142.43;37.78;;;;;;;;;;5032539;28;20104;-76
2022/01/19 04:09:20;;;;;;;161.80;39.00;;;;;;;;;;5032717;28;20403;-76
2022/01/19 04:11:46;;;;;;;155.68;39.70;;;;;;;;;;5032731;28;20456;-76
2022/01/19 04:14:21;;;;;;;166.38;38.65;;;;;;;;;;5032344;28;20029;-76
2022/01/19 04:16:48;;;;;;;171.52;39.47;;;;;;;;;;5032469;28;20032;-76
2022/01/19 04:21:40;;;;;;;195.68;41.00;;;;;;;;;;5032726;28;20163;-76
2022/01/19 04:24:06;;;;;;;161.23;38.42;;;;;;;;;;5032296;28;20090;-76
2022/01/19 04:26:32;;;;;;;151.65;37.17;;;;;;;;;;5032310;28;20049;-76
2022/01/19 04:28:58;;;;;;;129.45;34.15;;;;;;;;;;5032085;28;20475;-76
2022/01/19 04:31:24;;;;;;;188.70;39.55;;;;;;;;;;5032475;28;20045;-76
2022/01/19 04:33:50;;;;;;;134.25;34.92;;;;;;;;;;5032536;28;20030;-76
2022/01/19 05:05:37;;;;;;;208.07;42.58;;;;;;;;;;5052382;28;20033;-76
2022/01/19 05:08:14;;;;;;;;;;;;;;;;;;5052261;28;20112;-76
2022/01/19 05:13:29;;;;;;;234.35;41.55;;;;;;;;;;5051805;28;20463;-76
2022/01/19 05:15:55;;;;;;;212.82;42.95;;;;;;;;;;5055573;28;20020;-76
2022/01/19 05:18:21;;;;;;;261.25;44.33;;;;;;;;;;5032142;28;20538;-76
2022/01/19 05:20:48;;;;;;;157.65;38.08;;;;;;;;;;5031797;28;20036;-76
2022/01/19 05:23:17;;;;;;;188.38;40.85;;;;;;;;;;5031777;28;20483;-76
2022/01/19 05:25:43;;;;;;;193.48;40.35;;;;;;;;;;5032158;28;20025;-76
2022/01/19 05:28:09;;;;;;;154.32;37.90;;;;;;;;;;5031436;28;20060;-76
2022/01/19 05:30:35;;;;;;;198.10;38.03;;;;;;;;;;5034383;28;20028;-76
2022/01/19 05:33:01;;;;;;;125.40;35.47;;;;;;;;;;5035515;28;20029;-76
2022/01/19 05:35:28;;;;;;;145.40;36.35;;;;;;;;;;5035696;28;20127;-76
2022/01/19 05:37:55;;;;;;;136.30;34.15;;;;;;;;;;5034231;28;20036;-76
2022/01/19 05:40:21;;;;;;;128.13;34.25;;;;;;;;;;5034078;28;20025;-76
2022/01/19 05:42:48;;;;;;;176.13;37.15;;;;;;;;;;5033970;28;20537;-76
2022/01/19 05:45:14;;;;;;;158.27;36.95;;;;;;;;;;5047731;28;20037;-76
2022/01/19 05:47:40;;;;;;;161.10;36.45;;;;;;;;;;5053858;28;20032;-76
2022/01/19 05:50:07;;;;;;;172.05;38.28;;;;;;;;;;5055229;28;20021;-76
2022/01/19 05:52:33;;;;;;;120.75;33.53;;;;;;;;;;5055235;28;20444;-76
2022/01/19 05:54:59;;;;;;;123.03;35.10;;;;;;;;;;5054991;28;20102;-76
2022/01/19 05:57:25;;;;;;;131.57;35.47;;;;;;;;;;5053695;28;20372;-76
2022/01/19 05:59:51;;;;;;;157.00;37.10;;;;;;;;;;5054727;28;20100;-76
2022/01/19 06:02:17;;;;;;;133.05;33.88;;;;;;;;;;5055128;28;20109;-76
2022/01/19 06:04:43;;;;;;;162.70;36.90;;;;;;;;;;5055079;28;20075;-76
2022/01/19 06:07:11;;;;;;;130.50;35.78;;;;;;;;;;5054976;28;20067;-76
2022/01/19 06:09:49;;;;;;;129.90;34.20;;;;;;;;;;5054905;28;20486;-76
2022/01/19 06:12:16;;;;;;;134.20;35.90;;;;;;;;;;5054760;28;20340;-76
2022/01/19 06:14:43;;;;;;;137.05;34.35;;;;;;;;;;5054723;28;20036;-76
2022/01/19 06:17:10;;;;;;;138.18;34.42;;;;;;;;;;5058824;28;20032;-76
2022/01/19 06:19:37;;;;;;;146.80;35.72;;;;;;;;;;5054720;28;20033;-76
2022/01/19 06:22:03;;;;;;;114.68;32.65;;;;;;;;;;5054724;28;20021;-76
2022/01/19 06:24:29;;;;;;;161.00;36.67;;;;;;;;;;5054651;28;20040;-76
2022/01/19 06:26:55;;;;;;;139.40;35.80;;;;;;;;;;5054402;28;20046;-76
2022/01/19 06:29:21;;;;;;;172.60;38.13;;;;;;;;;;5054488;28;20502;-76
2022/01/19 06:31:47;;;;;;;196.38;40.90;;;;;;;;;;5054595;28;20033;-76
2022/01/19 06:34:13;;;;;;;128.90;35.03;;;;;;;;;;5053055;28;20368;-76
2022/01/19 06:36:39;;;;;;;132.45;34.80;;;;;;;;;;5054272;28;20096;-76
2022/01/19 06:39:05;;;;;;;125.35;34.33;;;;;;;;;;5054174;28;20398;-76
2022/01/19 06:41:31;;;;;;;152.90;37.20;;;;;;;;;;5054095;28;20083;-76
2022/01/19 06:43:57;;;;;;;130.35;34.92;;;;;;;;;;5052342;28;20036;-75
2022/01/19 06:46:23;;;;;;;103.25;32.75;;;;;;;;;;5034298;28;20040;-76
2022/01/19 06:48:49;;;;;;;100.25;33.33;;;;;;;;;;5034316;28;20033;-76
2022/01/19 06:51:15;;;;;;;110.88;33.05;;;;;;;;;;5034071;28;20033;-76
2022/01/19 06:53:41;;;;;;;113.95;34.50;;;;;;;;;;5033965;28;20467;-76
2022/01/19 06:56:07;;;;;;;156.50;40.55;;;;;;;;;;5034067;28;20075;-76
2022/01/19 06:58:33;;;;;;;124.40;37.65;;;;;;;;;;5033869;28;20029;-76
2022/01/19 07:00:59;;;;;;;152.02;39.90;;;;;;;;;;5033900;28;20025;-76
2022/01/19 07:03:26;;;;;;;128.57;39.30;;;;;;;;;;5033309;28;20052;-76
2022/01/19 07:05:52;;;;;;;139.02;40.72;;;;;;;;;;5033509;28;20025;-76
2022/01/19 07:08:18;;;;;;;129.40;38.08;;;;;;;;;;5033667;28;20040;-75
2022/01/19 07:10:44;;;;;;;150.75;42.03;;;;;;;;;;5033666;28;20037;-75
2022/01/19 07:13:10;;;;;;;166.52;45.72;;;;;;;;;;5033367;28;20075;-76
2022/01/19 07:15:36;;;;;;;139.75;41.13;;;;;;;;;;5037577;28;20021;-76
2022/01/19 07:18:03;;;;;;;147.40;43.13;;;;;;;;;;5055446;28;20013;-76
2022/01/19 07:20:29;;;;;;;151.80;43.45;;;;;;;;;;5053620;28;20027;-76
2022/01/19 07:23:00;;;;;;;152.23;44.60;;;;;;;;;;5053532;28;20111;-76
2022/01/19 07:25:26;;;;;;;156.70;45.70;;;;;;;;;;5053426;28;20379;-76
2022/01/19 07:27:52;;;;;;;178.57;47.53;;;;;;;;;;5053100;28;20052;-76
2022/01/19 07:30:18;;;;;;;196.95;50.63;;;;;;;;;;5051924;28;20028;-76
2022/01/19 07:32:44;;;;;;;185.00;50.15;;;;;;;;;;5053412;28;20035;-76
2022/01/19 07:35:10;;;;;;;176.43;47.70;;;;;;;;;;5053199;28;20036;-76
2022/01/19 07:37:37;;;;;;;196.38;50.72;;;;;;;;;;5053150;28;20380;-76
2022/01/19 07:40:03;;;;;;;204.23;50.42;;;;;;;;;;5053219;28;20096;-76
2022/01/19 07:42:29;;;;;;;214.85;52.50;;;;;;;;;;5051863;28;20115;-76
2022/01/19 07:44:55;;;;;;;222.35;53.85;;;;;;;;;;5043232;28;20106;-76
2022/01/19 07:47:21;;;;;;;213.25;54.22;;;;;;;;;;5033177;28;20360;-76
2022/01/19 07:49:47;;;;;;;242.90;57.33;;;;;;;;;;5032922;28;20026;-76
2022/01/19 07:52:14;;;;;;;201.82;53.53;;;;;;;;;;5032609;28;20117;-76
2022/01/19 07:54:40;;;;;;;211.63;55.53;;;;;;;;;;5032738;28;20124;-76
2022/01/19 07:57:06;;;;;;;232.35;56.05;;;;;;;;;;5032938;28;20025;-76
2022/01/19 07:59:32;;;;;;;217.75;54.22;;;;;;;;;;5032861;28;20476;-75
2022/01/19 08:01:59;;;;;;;234.95;57.55;;;;;;;;;;5033020;28;20079;-76
2022/01/19 08:04:25;;;;;;;219.07;54.28;;;;;;;;;;5039138;28;20091;-77
2022/01/19 08:06:54;;;;;;;213.32;57.42;;;;;;;;;;5042434;28;20140;-76
2022/01/19 08:09:23;;;;;;;215.20;58.45;;;;;;;;;;5045893;28;20115;-76
2022/01/19 08:11:49;;;;;;;234.73;58.35;;;;;;;;;;5051134;28;20120;-76
2022/01/19 08:14:16;;;;;;;238.50;57.72;;;;;;;;;;5050937;28;20055;-76
2022/01/19 08:16:42;;;;;;;225.07;57.92;;;;;;;;;;5050435;28;20021;-76
2022/01/19 08:19:08;;;;;;;228.02;58.03;;;;;;;;;;5050809;28;20017;-76
2022/01/19 08:21:34;;;;;;;255.15;60.42;;;;;;;;;;5049728;28;20067;-76
2022/01/19 08:24:00;;;;;;;243.35;61.42;;;;;;;;;;5046825;28;20041;-76
2022/01/19 08:26:26;;;;;;;237.57;57.65;;;;;;;;;;5048757;28;20052;-76
2022/01/19 08:28:52;;;;;;;210.18;57.55;;;;;;;;;;5047389;28;20044;-76
2022/01/19 08:31:19;;;;;;;221.63;57.83;;;;;;;;;;5047746;28;20106;-76
2022/01/19 08:33:44;;;;;;;234.52;58.72;;;;;;;;;;5049312;28;20099;-76
2022/01/19 08:36:10;;;;;;;183.10;53.70;;;;;;;;;;5049664;28;20025;-76
2022/01/19 08:38:38;;;;;;;191.98;56.50;;;;;;;;;;5040816;28;20539;-76
2022/01/19 08:41:04;;;;;;;178.80;54.60;;;;;;;;;;5040919;28;20479;-76
2022/01/19 08:43:32;;;;;;;201.13;54.65;;;;;;;;;;5042181;28;20033;-76
2022/01/19 08:45:58;;;;;;;193.40;54.15;;;;;;;;;;5048963;28;20024;-76
2022/01/19 08:48:25;;;;;;;186.50;53.83;;;;;;;;;;5051869;28;20210;-76
2022/01/19 08:50:52;;;;;;;211.30;55.92;;;;;;;;;;5044003;28;20045;-76
2022/01/19 08:53:18;;;;;;;192.75;56.38;;;;;;;;;;5048808;28;20028;-77
2022/01/19 08:55:44;;;;;;;157.60;49.35;;;;;;;;;;5038381;28;20025;-79
2022/01/19 08:58:10;;;;;;;178.27;51.88;;;;;;;;;;5052706;28;20092;-77
2022/01/19 09:00:37;;;;;;;177.07;52.28;;;;;;;;;;5052189;28;20531;-77
2022/01/19 09:03:03;;;;;;;201.40;55.53;;;;;;;;;;5051456;28;20037;-76
2022/01/19 09:05:29;;;;;;;175.88;51.53;;;;;;;;;;5054168;28;20070;-77
2022/01/19 09:07:55;;;;;;;160.63;49.20;;;;;;;;;;5055872;28;20450;-77
2022/01/19 09:10:22;;;;;;;165.10;51.03;;;;;;;;;;5055847;28;20021;-77
2022/01/19 09:12:48;;;;;;;182.90;51.55;;;;;;;;;;5055613;28;20050;-77
2022/01/19 09:15:17;;;;;;;171.40;50.22;;;;;;;;;;5055938;28;20021;-77
2022/01/19 09:17:43;;;;;;;150.98;47.97;;;;;;;;;;5044150;28;20025;-77
2022/01/19 09:20:10;;;;;;;165.50;49.92;;;;;;;;;;5036108;28;20026;-77
2022/01/19 09:22:36;;;;;;;173.25;49.38;;;;;;;;;;5035795;28;20026;-77
2022/01/19 09:25:03;;;;;;;159.48;50.05;;;;;;;;;;5035979;28;20420;-76
2022/01/19 09:27:29;;;;;;;145.40;48.58;;;;;;;;;;5035638;28;20121;-79
2022/01/19 09:29:55;;;;;;;162.82;48.83;;;;;;;;;;5043822;28;20056;-77
2022/01/19 09:32:22;;;;;;;139.23;45.08;;;;;;;;;;5044346;28;20025;-77
2022/01/19 09:34:54;;;;;;;149.70;49.03;;;;;;;;;;5055132;28;20066;-77
2022/01/19 09:37:20;;;;;;;138.60;46.25;;;;;;;;;;5044234;28;20023;-77
2022/01/19 09:39:46;;;;;;;131.35;46.15;;;;;;;;;;5043040;28;20018;-77
2022/01/19 09:42:13;;;;;;;127.85;43.05;;;;;;;;;;5041484;28;20022;-77
2022/01/19 09:44:39;;;;;;;120.38;42.05;;;;;;;;;;5046438;28;20021;-77
2022/01/19 09:47:06;;;;;;;132.90;44.38;;;;;;;;;;5055391;28;20021;-77
2022/01/19 09:49:32;;;;;;;121.55;42.50;;;;;;;;;;5036805;28;20083;-75
2022/01/19 09:51:58;;;;;;;117.90;42.45;;;;;;;;;;5035651;28;20480;-83
2022/01/19 09:54:26;;;;;;;115.03;41.85;;;;;;;;;;5035967;28;20351;-79
2022/01/19 09:56:52;;;;;;;115.85;42.78;;;;;;;;;;5036473;28;20021;-80
2022/01/19 09:59:19;;;;;;;112.38;41.70;;;;;;;;;;5036375;28;20017;-80
2022/01/19 10:01:49;;;;;;;104.20;40.72;;;;;;;;;;5036258;28;20018;-80
2022/01/19 10:04:19;;;;;;;117.13;44.67;;;;;;;;;;5034816;28;20035;-80
2022/01/19 10:06:46;;;;;;;107.93;39.45;;;;;;;;;;5036199;28;20427;-80
2022/01/19 10:09:12;;;;;;;93.97;39.70;;;;;;;;;;5036470;28;20037;-80
2022/01/19 10:17:00;;;;;;;98.75;40.35;;;;;;;;;;5051454;28;20077;-80
2022/01/19 10:19:48;;;;;;;92.72;37.75;;;;;;;;;;5074614;28;20025;-80
2022/01/19 10:22:15;;;;;;;91.40;38.33;;;;;;;;;;5075876;28;20486;-81
2022/01/19 10:24:47;;;;;;;104.13;39.97;;;;;;;;;;5075784;28;20111;-80
2022/01/19 10:27:23;;;;;;;96.20;37.85;;;;;;;;;;5074101;28;20040;-80
2022/01/19 10:29:50;;;;;;;93.38;39.13;;;;;;;;;;5075603;28;20036;-80
2022/01/19 10:32:16;;;;;;;88.32;38.15;;;;;;;;;;5075254;28;20051;-77
2022/01/19 10:34:42;;;;;;;91.85;39.53;;;;;;;;;;5064521;28;20040;-80
2022/01/19 10:37:08;;;;;;;95.18;38.03;;;;;;;;;;5048467;28;20028;-79
2022/01/19 10:39:49;;;;;;;93.05;39.10;;;;;;;;;;5053860;28;20377;-77
2022/01/19 10:42:17;;;;;;;101.30;38.95;;;;;;;;;;5052992;28;20075;-77
2022/01/19 10:44:47;;;;;;;92.68;37.85;;;;;;;;;;5053474;28;20056;-78
2022/01/19 10:47:15;;;;;;;93.00;38.05;;;;;;;;;;5042696;28;20025;-77
2022/01/19 10:49:57;;;;;;;84.03;37.45;;;;;;;;;;5053626;28;20021;-78
2022/01/19 10:52:26;;;;;;;91.82;36.40;;;;;;;;;;5051639;28;20559;-79
2022/01/19 10:54:52;;;;;;;90.40;37.75;;;;;;;;;;5053401;28;20040;-76
2022/01/19 10:57:18;;;;;;;81.68;36.05;;;;;;;;;;5050445;28;20022;-77
2022/01/19 10:59:44;;;;;;;73.45;34.20;;;;;;;;;;5052319;28;20017;-77
2022/01/19 11:02:12;;;;;;;76.40;35.53;;;;;;;;;;5056162;28;20460;-77
2022/01/19 11:04:39;;;;;;;83.63;36.22;;;;;;;;;;5050264;28;20028;-77
2022/01/19 11:07:05;;;;;;;77.88;34.38;;;;;;;;;;5053365;28;20028;-77
2022/01/19 11:09:34;;;;;;;72.15;33.40;;;;;;;;;;5053372;28;20398;-77
2022/01/19 11:12:03;;;;;;;72.50;31.30;;;;;;;;;;5050928;28;20107;-78
2022/01/19 11:14:30;;;;;;;79.78;34.33;;;;;;;;;;5053053;28;20025;-77
2022/01/19 11:16:56;;;;;;;74.70;34.38;;;;;;;;;;5047675;28;20100;-78
2022/01/19 11:19:22;;;;;;;75.72;33.25;;;;;;;;;;5052637;28;20036;-77
2022/01/19 11:21:51;;;;;;;71.95;33.15;;;;;;;;;;5053375;28;20078;-77
2022/01/19 11:24:37;;;;;;;64.28;31.00;;;;;;;;;;5038499;28;20036;-77
2022/01/19 11:27:04;;;;;;;70.70;32.35;;;;;;;;;;5003732;28;20090;-74
2022/01/19 11:29:30;;;;;;;71.30;31.63;;;;;;;;;;5002771;28;20046;-76
2022/01/19 11:31:58;;;;;;;72.43;31.77;;;;;;;;;;5002727;28;20041;-75
2022/01/19 11:34:43;;;;;;;66.82;33.13;;;;;;;;;;5007663;28;20096;-73
2022/01/19 11:37:09;;;;;;;69.80;32.90;;;;;;;;;;5006969;28;20464;-74
2022/01/19 11:39:36;;;;;;;71.28;32.47;;;;;;;;;;5002633;28;20037;-74
2022/01/19 11:42:03;;;;;;;74.13;34.15;;;;;;;;;;5008156;28;20921;-76
2022/01/19 11:44:30;;;;;;;74.38;34.17;;;;;;;;;;4998090;28;20057;-77
2022/01/19 11:46:57;;;;;;;74.57;35.50;;;;;;;;;;4988216;28;20476;-77
2022/01/19 11:49:42;;;;;;;79.72;34.40;;;;;;;;;;5004033;28;20037;-77
2022/01/19 11:52:08;;;;;;;75.85;35.10;;;;;;;;;;4986623;28;20038;-77
2022/01/19 11:54:35;;;;;;;79.22;33.67;;;;;;;;;;5002904;28;20120;-77
2022/01/19 11:57:02;;;;;;;73.97;34.42;;;;;;;;;;5001336;28;20038;-77
2022/01/19 11:59:55;;;;;;;74.20;33.60;;;;;;;;;;5000500;28;20518;-77
2022/01/19 12:02:24;;;;;;;78.53;36.90;;;;;;;;;;4999625;28;20030;-77
2022/01/19 12:04:59;;;;;;;75.88;34.08;;;;;;;;;;5034355;28;20472;-77
2022/01/19 12:07:39;;;;;;;65.38;31.60;;;;;;;;;;5039871;28;20387;-77
2022/01/19 12:10:06;;;;;;;68.80;33.80;;;;;;;;;;5042238;28;20037;-77
2022/01/19 12:12:38;;;;;;;66.57;32.00;;;;;;;;;;5046669;28;20029;-76
2022/01/19 12:15:07;;;;;;;66.90;33.33;;;;;;;;;;5053440;28;20025;-80
2022/01/19 12:17:55;;;;;;;60.53;30.92;;;;;;;;;;5052152;28;20443;-81
2022/01/19 12:20:58;;;;;;;68.50;31.40;;;;;;;;;;5054042;28;20060;-81
2022/01/19 12:23:28;;;;;;;65.80;31.55;;;;;;;;;;5011837;28;20504;-81
2022/01/19 12:25:55;;;;;;;67.10;31.50;;;;;;;;;;4995328;28;20176;-80
2022/01/19 12:28:39;;;;;;;64.38;31.25;;;;;;;;;;4995278;28;20060;-81
2022/01/19 12:31:23;;;;;;;70.20;33.17;;;;;;;;;;5011462;28;20042;-81
2022/01/19 12:34:05;;;;;;;63.28;31.60;;;;;;;;;;5006325;28;20070;-81
2022/01/19 12:36:40;;;;;;;68.63;31.80;;;;;;;;;;4991973;28;20129;-79
2022/01/19 12:39:25;;;;;;;64.50;30.55;;;;;;;;;;4990593;28;20038;-78
2022/01/19 12:41:59;;;;;;;58.45;30.00;;;;;;;;;;4991081;28;20030;-79
2022/01/19 12:44:43;;;;;;;61.08;29.08;;;;;;;;;;4990856;28;20524;-79
2022/01/19 12:47:29;;;;;;;67.93;32.35;;;;;;;;;;4991414;28;20109;-79
2022/01/19 12:49:59;;;;;;;64.93;30.92;;;;;;;;;;4971361;28;20465;-78
2022/01/19 12:52:27;;;;;;;58.17;30.98;;;;;;;;;;4971219;28;20125;-78
2022/01/19 12:54:54;;;;;;;59.17;30.33;;;;;;;;;;4971358;28;20041;-79
2022/01/19 12:57:21;;;;;;;67.43;30.35;;;;;;;;;;4965991;28;20473;-81
2022/01/19 12:59:48;;;;;;;58.15;29.33;;;;;;;;;;4972164;28;20105;-80
2022/01/19 13:02:15;;;;;;;66.88;30.35;;;;;;;;;;4972348;28;20066;-81
2022/01/19 13:04:42;;;;;;;55.38;28.02;;;;;;;;;;4955924;28;20135;-78
2022/01/19 13:07:26;;;;;;;57.30;28.92;;;;;;;;;;4971627;28;20050;-75
2022/01/19 13:10:23;;;;;;;61.65;30.70;;;;;;;;;;4963318;28;20038;-75
2022/01/19 13:12:56;;;;;;;59.40;30.02;;;;;;;;;;4963855;28;20027;-75
2022/01/19 13:15:23;;;;;;;62.08;31.98;;;;;;;;;;4953187;28;20030;-75
2022/01/19 13:17:50;;;;;;;61.63;29.88;;;;;;;;;;4964566;28;20533;-75
2022/01/19 13:20:18;;;;;;;63.33;32.60;;;;;;;;;;4965256;28;20082;-75
2022/01/19 13:22:48;;;;;;;63.00;31.48;;;;;;;;;;4966848;28;20270;-75
2022/01/19 13:25:16;;;;;;;62.38;29.80;;;;;;;;;;4965123;28;20042;-75
2022/01/19 13:27:43;;;;;;;66.55;30.77;;;;;;;;;;5030880;28;20399;-75
2022/01/19 13:30:14;;;;;;;61.63;30.92;;;;;;;;;;5044944;28;20386;-75
2022/01/19 13:32:40;;;;;;;67.35;31.90;;;;;;;;;;5045501;28;20907;-75
2022/01/19 13:35:09;;;;;;;62.65;31.75;;;;;;;;;;5046544;28;20029;-75
2022/01/19 13:37:36;;;;;;;65.35;31.02;;;;;;;;;;5048675;28;20096;-75
2022/01/19 13:40:07;;;;;;;64.18;32.03;;;;;;;;;;5048946;28;20032;-75
2022/01/19 13:42:38;;;;;;;66.13;31.85;;;;;;;;;;5049354;28;20499;-75
2022/01/19 13:45:10;;;;;;;62.08;30.48;;;;;;;;;;5045319;28;20029;-76
2022/01/19 13:47:56;;;;;;;66.03;31.45;;;;;;;;;;5045553;28;20039;-76
2022/01/19 13:50:23;;;;;;;61.63;31.58;;;;;;;;;;5049164;28;20039;-75
2022/01/19 13:52:49;;;;;;;62.50;30.75;;;;;;;;;;5051086;28;20056;-75
2022/01/19 13:55:19;;;;;;;53.42;28.77;;;;;;;;;;5049984;28;20467;-75
2022/01/19 13:57:45;;;;;;;57.17;28.63;;;;;;;;;;5047219;28;20124;-75
2022/01/19 14:00:12;;;;;;;55.47;30.15;;;;;;;;;;5048464;28;20033;-76
2022/01/19 14:02:38;;;;;;;63.03;30.83;;;;;;;;;;5049788;28;20482;-75
2022/01/19 14:05:05;;;;;;;62.30;29.88;;;;;;;;;;5046715;28;20032;-75
2022/01/19 14:07:31;;;;;;;62.33;29.08;;;;;;;;;;5047284;28;20162;-74
2022/01/19 14:10:07;;;;;;;61.33;29.20;;;;;;;;;;5048678;28;20032;-75
2022/01/19 14:12:33;;;;;;;54.97;28.88;;;;;;;;;;5049253;28;20025;-75
2022/01/19 14:15:01;;;;;;;53.05;27.52;;;;;;;;;;5049763;28;20544;-75
2022/01/19 14:17:36;;;;;;;54.08;29.63;;;;;;;;;;5045743;28;20071;-75
2022/01/19 14:20:03;;;;;;;57.97;29.92;;;;;;;;;;5041205;28;20503;-76
2022/01/19 14:22:33;;;;;;;58.85;29.48;;;;;;;;;;5045886;28;20175;-75
2022/01/19 14:25:05;;;;;;;62.67;28.83;;;;;;;;;;5054295;28;20343;-75
2022/01/19 14:27:32;;;;;;;50.38;28.27;;;;;;;;;;5053895;28;20522;-75
2022/01/19 14:30:10;;;;;;;66.60;29.98;;;;;;;;;;5041969;28;20017;-75
2022/01/19 14:32:36;;;;;;;62.10;30.52;;;;;;;;;;5054013;28;20115;-75
2022/01/19 14:35:03;;;;;;;57.47;27.92;;;;;;;;;;5050404;28;20025;-75
2022/01/19 14:37:29;;;;;;;62.35;29.60;;;;;;;;;;5043868;28;20051;-75
2022/01/19 14:39:57;;;;;;;61.95;30.50;;;;;;;;;;5043242;28;20017;-75
2022/01/19 14:42:25;;;;;;;60.88;28.83;;;;;;;;;;5054365;28;20395;-75
2022/01/19 14:45:00;;;;;;;55.90;28.40;;;;;;;;;;5053945;28;20102;-75
2022/01/19 14:47:39;;;;;;;61.40;29.52;;;5.50;99.90;;;;;;5054384;28;20028;-75
2022/01/19 14:50:22;;;;;;;56.13;28.80;;;5.50;99.90;;;;;;5054070;28;20032;-74
2022/01/19 14:52:51;;;;;;;;;;;5.50;99.90;;;;;;5054377;28;20025;-75
2022/01/19 14:55:26;;;;;;;65.80;28.38;;;5.50;99.90;;;;;;5052627;28;19950;-74
2022/01/19 14:57:53;;;;;;;67.78;29.90;;;;;;;;;;5053876;28;20155;-74
2022/01/19 15:00:19;;;;;;;61.50;29.17;;;;;;;;;;5053801;28;20021;-74
2022/01/19 15:02:49;;;;;;;62.10;30.20;;;;;;;;;;5052177;28;20032;-74
2022/01/19 15:05:15;;;;;;;71.28;30.95;;;5.40;99.90;;;;;;5053728;28;20029;-74
2022/01/19 15:07:41;;;;;;;75.20;32.10;;;5.40;99.90;;;;;;5052540;28;20028;-74
2022/01/19 15:10:08;;;;;;;70.07;31.55;;;5.40;99.90;;;;;;5053624;28;20150;-74
2022/01/19 15:12:34;;;;;;;67.07;31.23;;;5.40;99.90;;;;;;5053669;28;20033;-74
2022/01/19 15:15:01;;;;;;;81.28;33.47;;;5.40;99.90;;;;;;5053610;28;20104;-74
2022/01/19 15:17:27;;;;;;;74.10;31.90;;;5.50;99.90;;;;;;5052276;28;20364;-76
2022/01/19 15:19:53;;;;;;;79.10;33.28;;;5.50;99.90;;;;;;5065882;28;20036;-75
2022/01/19 15:22:22;;;;;;;78.72;30.40;;;5.50;99.90;;;;;;5052932;28;20474;-75
2022/01/19 15:24:48;;;;;;;81.85;32.60;;;;;;;;;;5050848;28;20094;-75
2022/01/19 15:27:14;;;;;;;80.57;32.97;;;5.50;99.90;;;;;;5041964;28;20056;-75
2022/01/19 15:29:40;;;;;;;83.32;34.78;;;5.50;99.90;;;;;;5039298;28;20033;-75
2022/01/19 15:32:06;;;;;;;80.93;31.30;;;;;;;;;;5052890;28;20017;-74
2022/01/19 15:34:32;;;;;;;67.05;27.85;;;;;;;;;;5052637;28;20069;-75
2022/01/19 15:36:57;;;;;;;72.88;29.88;;;5.50;99.90;;;;;;5047463;28;20021;-74
2022/01/19 15:39:23;;;;;;;65.88;28.05;;;;;;;;;;5052705;28;20067;-75
2022/01/19 15:41:49;;;;;;;81.95;32.75;;;5.60;99.90;;;;;;5041815;28;20491;-75